createdAt,value
2022-07-28T00:00:16.538Z,2.40
2022-07-28T00:02:46.597Z,2.10
2022-07-28T00:05:14.021Z,2.15
2022-07-28T00:07:41.611Z,2.15
2022-07-28T00:10:09.594Z,2.10
2022-07-28T00:12:38.102Z,2.40
2022-07-28T00:15:06.236Z,2.40
2022-07-28T00:17:33.361Z,2.55
2022-07-28T00:20:00.555Z,2.17
2022-07-28T00:22:29.677Z,2.45
2022-07-28T00:24:56.969Z,2.28
2022-07-28T00:27:25.128Z,2.83
2022-07-28T00:29:52.099Z,2.58
2022-07-28T00:32:21.058Z,2.30
2022-07-28T00:34:48.449Z,2.55
2022-07-28T00:37:15.546Z,2.05
2022-07-28T00:39:44.062Z,2.33
2022-07-28T00:42:12.569Z,3.00
2022-07-28T00:44:42.903Z,2.50
2022-07-28T00:47:13.187Z,2.08
2022-07-28T00:49:45.753Z,1.90
2022-07-28T00:52:13.953Z,2.17
2022-07-28T00:54:41.167Z,3.03
2022-07-28T00:57:08.267Z,3.03
2022-07-28T00:59:35.442Z,2.70
2022-07-28T01:02:03.607Z,2.45
2022-07-28T01:04:31.323Z,2.08
2022-07-28T01:10:14.790Z,2.30
2022-07-28T01:13:03.197Z,2.05
2022-07-28T01:15:34.107Z,2.22
2022-07-28T01:18:17.811Z,2.28
2022-07-28T01:20:49.580Z,1.98
2022-07-28T01:23:31.761Z,2.08
2022-07-28T01:26:21.399Z,2.35
2022-07-28T01:29:16.526Z,2.30
2022-07-28T01:31:48.398Z,2.15
2022-07-28T01:34:20.418Z,2.47
2022-07-28T01:36:53.639Z,1.98
2022-07-28T01:39:25.375Z,2.13
2022-07-28T01:41:55.264Z,2.10
2022-07-28T01:44:26.972Z,2.13
2022-07-28T01:46:56.345Z,2.13
2022-07-28T01:49:26.857Z,1.80
2022-07-28T01:51:56.381Z,2.25
2022-07-28T01:54:27.938Z,2.00
2022-07-28T01:56:57.474Z,1.98
2022-07-28T01:59:26.474Z,2.05
2022-07-28T02:01:54.789Z,2.17
2022-07-28T02:04:23.957Z,2.50
2022-07-28T02:06:53.389Z,1.80
2022-07-28T02:09:23.263Z,2.45
2022-07-28T02:11:54.288Z,2.25
2022-07-28T02:14:25.994Z,2.28
2022-07-28T02:17:03.963Z,2.45
2022-07-28T02:19:32.742Z,2.25
2022-07-28T02:22:03.550Z,2.65
2022-07-28T02:24:32.826Z,2.10
2022-07-28T02:27:06.382Z,2.25
2022-07-28T02:29:52.185Z,2.03
2022-07-28T02:32:28.754Z,1.92
2022-07-28T02:35:06.019Z,2.67
2022-07-28T02:37:40.480Z,2.42
2022-07-28T02:40:13.947Z,2.70
2022-07-28T02:42:43.351Z,1.70
2022-07-28T02:45:13.400Z,1.98
2022-07-28T02:47:46.567Z,1.98
2022-07-28T02:50:17.106Z,2.08
2022-07-28T02:52:49.795Z,2.00
2022-07-28T02:55:17.852Z,2.28
2022-07-28T02:57:50.887Z,2.15
2022-07-28T03:00:21.776Z,2.38
2022-07-28T03:02:49.459Z,2.25
2022-07-28T03:10:33.458Z,2.30
2022-07-28T03:13:07.062Z,2.72
2022-07-28T03:15:35.839Z,2.35
2022-07-28T03:18:04.780Z,2.55
2022-07-28T03:20:35.020Z,2.05
2022-07-28T03:23:02.642Z,1.83
2022-07-28T03:28:09.591Z,3.28
2022-07-28T03:30:43.269Z,2.30
2022-07-28T03:33:11.715Z,2.90
2022-07-28T03:35:45.084Z,2.58
2022-07-28T03:38:17.766Z,2.47
2022-07-28T03:40:46.610Z,2.53
2022-07-28T03:43:17.058Z,1.95
2022-07-28T03:45:46.498Z,2.45
2022-07-28T03:48:15.387Z,2.25
2022-07-28T03:50:43.226Z,2.30
2022-07-28T03:53:19.214Z,2.58
2022-07-28T03:55:51.151Z,2.78
2022-07-28T03:58:29.183Z,2.15
2022-07-28T04:00:57.671Z,2.72
2022-07-28T04:03:42.529Z,3.25
2022-07-28T04:06:11.270Z,2.83
2022-07-28T04:08:38.306Z,3.08
2022-07-28T04:11:05.451Z,2.55
2022-07-28T04:13:32.692Z,2.67
2022-07-28T04:16:01.726Z,3.05
2022-07-28T04:18:29.343Z,1.77
2022-07-28T04:23:24.283Z,2.03
2022-07-28T04:25:51.935Z,2.40
2022-07-28T04:30:48.854Z,2.33
2022-07-28T04:33:16.392Z,2.67
2022-07-28T04:35:43.549Z,2.78
2022-07-28T04:38:12.389Z,2.75
2022-07-28T04:40:39.818Z,2.63
2022-07-28T04:43:07.021Z,2.72
2022-07-28T04:45:34.690Z,2.25
2022-07-28T04:48:01.969Z,2.78
2022-07-28T04:50:29.076Z,2.63
2022-07-28T04:52:56.178Z,2.10
2022-07-28T04:55:23.712Z,2.65
2022-07-28T04:57:51.674Z,1.88
2022-07-28T05:00:22.736Z,2.08
2022-07-28T05:02:51.736Z,2.20
2022-07-28T05:05:19.235Z,2.30
2022-07-28T05:12:42.669Z,2.20
2022-07-28T05:15:12.546Z,2.63
2022-07-28T05:17:39.879Z,2.13
2022-07-28T05:20:08.822Z,3.03
2022-07-28T05:22:43.990Z,2.35
2022-07-28T05:25:20.325Z,2.60
2022-07-28T05:27:48.241Z,2.77
2022-07-28T05:30:16.075Z,2.90
2022-07-28T05:32:43.635Z,2.67
2022-07-28T05:35:10.843Z,2.40
2022-07-28T05:37:39.067Z,2.20
2022-07-28T05:40:14.275Z,2.10
2022-07-28T05:42:43.322Z,2.42
2022-07-28T05:45:16.322Z,2.15
2022-07-28T05:47:49.643Z,2.28
2022-07-28T05:50:18.588Z,2.00
2022-07-28T05:52:47.141Z,2.60
2022-07-28T05:55:14.782Z,2.13
2022-07-28T05:57:41.884Z,2.30
2022-07-28T06:00:11.826Z,2.35
2022-07-28T06:02:40.262Z,2.45
2022-07-28T06:05:08.283Z,1.65
2022-07-28T06:07:43.640Z,2.00
2022-07-28T06:10:16.826Z,2.17
2022-07-28T06:12:50.031Z,2.20
2022-07-28T06:15:19.752Z,2.55
2022-07-28T06:17:46.764Z,2.15
2022-07-28T06:20:14.782Z,1.80
2022-07-28T06:22:47.423Z,1.88
2022-07-28T06:25:19.123Z,1.98
2022-07-28T06:27:47.219Z,1.52
2022-07-28T06:30:15.219Z,1.98
2022-07-28T06:32:42.696Z,2.00
2022-07-28T06:35:11.212Z,2.00
2022-07-28T06:37:38.342Z,1.70
2022-07-28T06:42:32.582Z,1.98
2022-07-28T06:47:27.715Z,1.98
2022-07-28T06:49:54.849Z,1.73
2022-07-28T06:54:53.522Z,1.77
2022-07-28T06:57:28.187Z,1.75
2022-07-28T07:00:05.749Z,1.92
2022-07-28T07:02:34.256Z,1.98
2022-07-28T07:05:01.347Z,2.08
2022-07-28T07:09:55.667Z,1.73
2022-07-28T07:12:22.818Z,1.73
2022-07-28T07:14:49.963Z,2.00
2022-07-28T07:17:17.444Z,1.98
2022-07-28T07:19:44.721Z,1.80
2022-07-28T07:22:15.130Z,1.77
2022-07-28T07:24:42.548Z,1.98
2022-07-28T07:27:09.742Z,1.50
2022-07-28T07:29:36.752Z,1.92
2022-07-28T07:34:39.606Z,2.50
2022-07-28T07:37:10.585Z,2.63
2022-07-28T07:39:38.174Z,2.58
2022-07-28T07:42:05.396Z,1.80
2022-07-28T07:44:32.780Z,2.08
2022-07-28T07:47:00.227Z,2.03
2022-07-28T07:49:27.469Z,1.95
2022-07-28T07:52:12.867Z,1.73
2022-07-28T07:54:40.023Z,2.33
2022-07-28T07:57:07.457Z,1.70
2022-07-28T07:59:34.681Z,1.75
2022-07-28T08:02:02.266Z,1.92
2022-07-28T08:04:29.490Z,1.95
2022-07-28T08:06:57.081Z,1.83
2022-07-28T08:09:24.404Z,1.70
2022-07-28T08:11:51.550Z,1.80
2022-07-28T08:16:45.907Z,2.10
2022-07-28T08:21:39.852Z,2.00
2022-07-28T08:24:07.644Z,2.10
2022-07-28T08:26:34.733Z,2.70
2022-07-28T08:29:01.830Z,2.03
2022-07-28T08:31:29.030Z,2.35
2022-07-28T08:33:58.820Z,2.00
2022-07-28T08:36:25.939Z,1.92
2022-07-28T08:38:52.968Z,1.90
2022-07-28T08:41:33.811Z,2.20
2022-07-28T08:44:04.305Z,2.08
2022-07-28T08:46:38.907Z,1.90
2022-07-28T08:49:09.409Z,2.15
2022-07-28T08:51:38.186Z,2.03
2022-07-28T08:54:06.466Z,1.95
2022-07-28T08:56:33.697Z,2.20
2022-07-28T08:59:02.202Z,2.10
2022-07-28T09:01:38.694Z,2.35
2022-07-28T09:04:11.765Z,2.05
2022-07-28T09:06:43.019Z,1.98
2022-07-28T09:09:10.918Z,1.80
2022-07-28T09:11:39.088Z,2.40
2022-07-28T09:14:07.106Z,2.15
2022-07-28T09:16:34.705Z,1.83
2022-07-28T09:19:01.739Z,2.17
2022-07-28T09:21:29.320Z,1.92
2022-07-28T09:23:56.489Z,1.95
2022-07-28T09:26:23.525Z,2.13
2022-07-28T09:28:57.187Z,2.45
2022-07-28T09:31:26.455Z,2.45
2022-07-28T09:34:06.067Z,2.25
2022-07-28T09:36:42.271Z,2.42
2022-07-28T09:39:09.627Z,2.00
2022-07-28T09:41:55.440Z,1.95
2022-07-28T09:44:24.581Z,2.10
2022-07-28T09:46:51.956Z,2.30
2022-07-28T09:49:21.936Z,2.55
2022-07-28T09:52:04.040Z,2.00
2022-07-28T09:54:31.114Z,2.00
2022-07-28T09:56:58.416Z,2.08
2022-07-28T09:59:26.392Z,2.30
2022-07-28T10:02:02.662Z,2.30
2022-07-28T10:04:36.208Z,1.98
2022-07-28T10:07:08.039Z,2.22
2022-07-28T10:09:35.096Z,2.17
2022-07-28T10:12:22.172Z,2.50
2022-07-28T10:14:52.024Z,2.10
2022-07-28T10:17:35.553Z,2.17
2022-07-28T10:20:06.110Z,2.13
2022-07-28T10:22:39.482Z,2.08
2022-07-28T10:25:12.965Z,1.63
2022-07-28T10:27:45.377Z,1.90
2022-07-28T10:30:13.914Z,2.10
2022-07-28T10:32:45.938Z,2.10
2022-07-28T10:35:15.611Z,2.40
2022-07-28T10:38:16.531Z,2.55
2022-07-28T10:40:47.164Z,2.22
2022-07-28T10:43:15.525Z,2.17
2022-07-28T10:48:34.404Z,2.13
2022-07-28T10:51:05.998Z,2.17
2022-07-28T10:53:41.004Z,1.88
2022-07-28T10:56:26.004Z,2.25
2022-07-28T10:59:29.798Z,2.20
2022-07-28T11:01:57.052Z,2.53
2022-07-28T11:04:48.973Z,2.10
2022-07-28T11:07:17.547Z,2.47
2022-07-28T11:09:47.910Z,2.95
2022-07-28T11:12:16.077Z,2.13
2022-07-28T11:14:45.172Z,2.05
2022-07-28T11:17:16.613Z,2.42
2022-07-28T11:22:45.742Z,2.33
2022-07-28T11:25:18.818Z,1.80
2022-07-28T11:27:52.194Z,2.30
2022-07-28T11:30:19.829Z,2.20
2022-07-28T11:32:55.898Z,2.20
2022-07-28T11:35:27.534Z,2.60
2022-07-28T11:38:03.863Z,2.45
2022-07-28T11:40:32.386Z,2.28
2022-07-28T11:43:36.245Z,2.60
2022-07-28T11:46:11.403Z,2.15
2022-07-28T11:48:40.860Z,2.17
2022-07-28T11:51:07.842Z,2.42
2022-07-28T11:53:38.948Z,2.47
2022-07-28T11:56:09.543Z,1.98
2022-07-28T11:58:37.990Z,2.47
2022-07-28T12:01:32.454Z,2.17
2022-07-28T12:04:15.444Z,2.10
2022-07-28T12:06:51.224Z,2.85
2022-07-28T12:09:41.322Z,2.22
2022-07-28T12:12:13.024Z,2.40
2022-07-28T12:14:41.151Z,2.15
2022-07-28T12:17:08.508Z,2.20
2022-07-28T12:19:35.887Z,2.50
2022-07-28T12:22:15.548Z,2.17
2022-07-28T12:24:44.910Z,2.22
2022-07-28T12:27:14.756Z,2.13
2022-07-28T12:29:42.873Z,2.08
2022-07-28T12:32:10.484Z,2.58
2022-07-28T12:34:40.477Z,2.58
2022-07-28T12:37:12.685Z,2.72
2022-07-28T12:39:42.934Z,2.30
2022-07-28T12:42:12.632Z,2.63
2022-07-28T12:44:41.930Z,2.38
2022-07-28T12:47:13.015Z,2.33
2022-07-28T12:49:42.933Z,2.00
2022-07-28T12:52:22.089Z,3.38
2022-07-28T12:54:55.888Z,2.25
2022-07-28T12:57:51.626Z,2.00
2022-07-28T13:00:37.167Z,2.35
2022-07-28T13:03:26.343Z,2.60
2022-07-28T13:06:04.240Z,2.30
2022-07-28T13:08:44.646Z,2.40
2022-07-28T13:11:42.112Z,2.05
2022-07-28T13:14:01.219Z,1.88
2022-07-28T13:16:30.080Z,2.35
2022-07-28T13:18:59.728Z,1.85
2022-07-28T13:21:58.151Z,2.35
2022-07-28T13:24:28.434Z,2.00
2022-07-28T13:26:56.947Z,1.90
2022-07-28T13:29:24.860Z,2.28
2022-07-28T13:31:55.060Z,1.85
2022-07-28T13:34:22.575Z,2.00
2022-07-28T13:36:49.903Z,2.30
2022-07-28T13:39:17.129Z,2.10
2022-07-28T13:41:57.812Z,2.05
2022-07-28T13:44:27.853Z,2.03
2022-07-28T13:46:56.529Z,2.10
2022-07-28T13:49:24.436Z,1.83
2022-07-28T13:51:51.679Z,1.80
2022-07-28T13:57:12.026Z,1.75
2022-07-28T13:59:40.164Z,2.20
2022-07-28T14:02:15.434Z,2.33
2022-07-28T14:04:45.677Z,1.80
2022-07-28T14:07:13.312Z,2.10
2022-07-28T14:09:48.301Z,2.00
2022-07-28T14:12:15.549Z,2.10
2022-07-28T14:14:47.920Z,1.80
2022-07-28T14:17:44.427Z,2.38
2022-07-28T14:20:05.062Z,1.92
2022-07-28T14:22:32.212Z,2.03
2022-07-28T14:24:59.580Z,2.00
2022-07-28T14:27:29.227Z,1.67
2022-07-28T14:29:57.297Z,2.17
2022-07-28T14:32:27.458Z,1.60
2022-07-28T14:34:54.738Z,2.00
2022-07-28T14:42:15.983Z,2.08
2022-07-28T14:44:43.422Z,2.63
2022-07-28T14:47:10.559Z,2.08
2022-07-28T14:49:38.505Z,2.10
2022-07-28T14:52:27.976Z,1.83
2022-07-28T14:54:55.555Z,2.17
2022-07-28T14:57:24.493Z,2.42
2022-07-28T15:01:09.769Z,1.90
2022-07-28T15:06:10.422Z,2.50
2022-07-28T15:08:38.389Z,2.25
2022-07-28T15:11:23.981Z,1.85
2022-07-28T15:13:51.149Z,2.10
2022-07-28T15:16:19.220Z,2.03
2022-07-28T15:18:46.696Z,2.17
2022-07-28T15:23:44.664Z,1.85
2022-07-28T15:26:14.695Z,2.20
2022-07-28T15:28:41.819Z,2.05
2022-07-28T15:31:09.058Z,1.45
2022-07-28T15:33:45.473Z,1.83
2022-07-28T15:36:17.742Z,1.15
2022-07-28T15:38:49.277Z,1.65
2022-07-28T15:41:19.337Z,1.58
2022-07-28T15:43:46.738Z,1.67
2022-07-28T15:46:14.802Z,1.63
2022-07-28T15:48:44.094Z,1.60
2022-07-28T15:51:11.849Z,1.60
2022-07-28T15:53:39.323Z,1.30
2022-07-28T15:58:34.038Z,2.20
2022-07-28T16:01:02.069Z,1.50
2022-07-28T16:03:30.417Z,1.63
2022-07-28T16:05:59.070Z,1.65
2022-07-28T16:08:27.195Z,1.88
2022-07-28T16:10:55.020Z,1.75
2022-07-28T16:13:35.676Z,1.95
2022-07-28T16:16:16.656Z,1.20
2022-07-28T16:18:44.441Z,1.42
2022-07-28T16:21:11.977Z,1.67
2022-07-28T16:26:10.266Z,1.40
2022-07-28T16:28:37.616Z,1.30
2022-07-28T16:31:06.618Z,1.25
2022-07-28T16:33:34.117Z,1.70
2022-07-28T16:38:31.289Z,1.73
2022-07-28T16:40:58.653Z,1.45
2022-07-28T16:43:25.693Z,1.35
2022-07-28T16:45:52.949Z,2.10
2022-07-28T16:48:20.973Z,1.52
2022-07-28T16:50:49.844Z,1.70
2022-07-28T16:53:17.208Z,1.85
2022-07-28T16:55:45.055Z,1.52
2022-07-28T16:58:12.272Z,1.60
2022-07-28T17:00:39.443Z,1.35
2022-07-28T17:03:14.184Z,1.70
2022-07-28T17:05:41.360Z,1.60
2022-07-28T17:08:09.569Z,1.55
2022-07-28T17:10:36.724Z,1.35
2022-07-28T17:13:05.782Z,1.45
2022-07-28T17:15:36.013Z,1.40
2022-07-28T17:18:03.441Z,1.27
2022-07-28T17:20:30.922Z,1.20
2022-07-28T17:23:00.178Z,1.70
2022-07-28T17:26:20.416Z,1.45
2022-07-28T17:28:17.946Z,1.35
2022-07-28T17:30:45.039Z,1.30
2022-07-28T17:33:15.977Z,1.20
2022-07-28T17:36:09.117Z,1.33
2022-07-28T17:38:36.681Z,1.55
2022-07-28T17:43:32.617Z,1.02
2022-07-28T17:46:00.899Z,1.30
2022-07-28T17:48:28.748Z,1.20
2022-07-28T17:50:55.894Z,1.30
2022-07-28T17:53:24.507Z,1.20
2022-07-28T17:56:01.272Z,1.20
2022-07-28T17:58:34.471Z,1.42
2022-07-28T18:01:23.657Z,1.23
2022-07-28T18:03:57.692Z,1.60
2022-07-28T18:06:34.845Z,0.98
2022-07-28T18:09:08.725Z,0.95
2022-07-28T18:11:56.076Z,1.20
2022-07-28T18:14:30.210Z,1.30
2022-07-28T18:19:45.646Z,1.13
2022-07-28T18:22:13.502Z,1.20
2022-07-28T18:24:40.765Z,1.30
2022-07-28T18:27:07.959Z,1.23
2022-07-28T18:29:38.436Z,1.70
2022-07-28T18:32:09.608Z,1.52
2022-07-28T18:34:37.215Z,1.33
2022-07-28T18:37:05.134Z,1.38
2022-07-28T18:39:32.221Z,1.10
2022-07-28T18:41:59.304Z,1.33
2022-07-28T18:44:28.665Z,1.92
2022-07-28T18:46:58.114Z,1.13
2022-07-28T18:49:25.358Z,1.33
2022-07-28T18:51:53.706Z,1.65
2022-07-28T18:54:27.438Z,1.40
2022-07-28T18:56:55.809Z,1.83
2022-07-28T18:59:23.081Z,1.42
2022-07-28T19:01:50.401Z,1.33
2022-07-28T19:04:18.101Z,1.50
2022-07-28T19:06:45.554Z,1.08
2022-07-28T19:09:12.755Z,1.13
2022-07-28T19:11:45.347Z,1.42
2022-07-28T19:14:14.088Z,1.60
2022-07-28T19:16:41.850Z,1.13
2022-07-28T19:21:42.907Z,1.08
2022-07-28T19:24:11.760Z,1.38
2022-07-28T19:26:39.394Z,1.42
2022-07-28T19:31:34.342Z,1.02
2022-07-28T19:34:01.696Z,1.00
2022-07-28T19:36:29.118Z,1.20
2022-07-28T19:39:03.676Z,1.67
2022-07-28T19:41:32.038Z,1.40
2022-07-28T19:43:59.332Z,1.10
2022-07-28T19:46:26.648Z,1.33
2022-07-28T19:48:54.581Z,1.15
2022-07-28T19:51:22.468Z,1.05
2022-07-28T19:53:54.963Z,1.27
2022-07-28T19:56:30.528Z,1.08
2022-07-28T19:59:02.598Z,1.20
2022-07-28T20:01:29.880Z,1.23
2022-07-28T20:04:00.879Z,1.50
2022-07-28T20:06:33.317Z,1.35
2022-07-28T20:09:02.015Z,1.30
2022-07-28T20:11:29.330Z,0.90
2022-07-28T20:14:05.478Z,1.15
2022-07-28T20:16:36.010Z,0.75
2022-07-28T20:19:03.338Z,0.77
2022-07-28T20:21:38.424Z,1.00
2022-07-28T20:24:07.047Z,0.95
2022-07-28T20:29:08.932Z,1.30
2022-07-28T20:31:37.144Z,0.93
2022-07-28T20:34:07.611Z,1.00
2022-07-28T20:36:35.541Z,1.45
2022-07-28T20:39:15.767Z,1.08
2022-07-28T20:44:28.872Z,0.63
2022-07-28T20:47:04.549Z,1.33
2022-07-28T20:49:32.139Z,0.82
2022-07-28T20:51:59.773Z,1.13
2022-07-28T20:54:28.555Z,1.00
2022-07-28T20:56:56.412Z,1.40
2022-07-28T20:59:27.791Z,1.05
2022-07-28T21:01:55.548Z,0.88
2022-07-28T21:04:24.574Z,1.30
2022-07-28T21:06:55.359Z,0.80
2022-07-28T21:09:34.798Z,0.98
2022-07-28T21:12:04.014Z,0.70
2022-07-28T21:14:34.006Z,0.65
2022-07-28T21:17:02.993Z,1.40
2022-07-28T21:19:30.713Z,1.00
2022-07-28T21:24:24.959Z,1.08
2022-07-28T21:26:53.729Z,1.55
2022-07-28T21:32:04.771Z,1.30
2022-07-28T21:34:35.101Z,1.13
2022-07-28T21:37:07.037Z,1.02
2022-07-28T21:39:35.358Z,0.70
2022-07-28T21:42:09.325Z,0.88
2022-07-28T21:44:38.230Z,0.65
2022-07-28T21:47:05.533Z,0.85
2022-07-28T21:49:35.974Z,0.80
2022-07-28T21:52:06.304Z,0.85
2022-07-28T21:54:36.578Z,1.17
2022-07-28T21:57:04.123Z,0.85
2022-07-28T21:59:49.741Z,1.30
2022-07-28T22:02:17.193Z,1.08
2022-07-28T22:04:44.688Z,1.00
2022-07-28T22:07:12.428Z,1.00
2022-07-28T22:12:13.517Z,1.13
2022-07-28T22:14:43.951Z,0.60
2022-07-28T22:17:11.474Z,0.98
2022-07-28T22:19:40.761Z,0.90
2022-07-28T22:22:08.093Z,1.00
2022-07-28T22:24:38.153Z,1.05
2022-07-28T22:27:06.017Z,1.05
2022-07-28T22:29:33.832Z,1.48
2022-07-28T22:34:57.937Z,0.65
2022-07-28T22:37:25.278Z,1.10
2022-07-28T22:42:33.638Z,1.05
2022-07-28T22:45:01.355Z,1.30
2022-07-28T22:49:56.465Z,1.70
2022-07-28T22:52:30.421Z,1.13
2022-07-28T22:54:58.016Z,1.10
2022-07-28T22:57:26.429Z,0.80
2022-07-28T22:59:56.517Z,0.77
2022-07-28T23:02:26.356Z,0.80
2022-07-28T23:04:53.950Z,1.02
2022-07-28T23:07:51.443Z,1.13
2022-07-28T23:10:12.341Z,0.90
2022-07-28T23:12:42.428Z,1.10
2022-07-28T23:15:09.987Z,1.35
2022-07-28T23:17:37.187Z,0.75
2022-07-28T23:20:08.356Z,1.20
2022-07-28T23:22:35.508Z,0.90
2022-07-28T23:25:04.318Z,0.82
2022-07-28T23:27:32.130Z,1.00
2022-07-28T23:30:01.814Z,1.30
2022-07-28T23:32:29.304Z,1.10
2022-07-28T23:35:00.040Z,1.33
2022-07-28T23:37:27.741Z,1.27
2022-07-28T23:42:28.541Z,0.90
2022-07-28T23:44:55.681Z,1.15
2022-07-28T23:47:22.877Z,1.40
2022-07-28T23:49:50.025Z,0.80
2022-07-28T23:52:17.317Z,0.55
2022-07-28T23:54:44.621Z,0.85
2022-07-28T23:57:11.804Z,1.13
2022-07-28T23:59:39.056Z,1.27
